Time;durP1;ratioP1;P1;durP2;ratioP2;P2;SDS_P1;SDS_P2;PMS_P1;PMS_P2;Temp;Humidity;BMP_temperature;BMP_pressure;BME280_temperature;BME280_humidity;BME280_pressure;Samples;Min_cycle;Max_cycle;Signal;HPM_P1;HPM_P2
2023/08/11 00:00:04;;;;;;;0.80;0.50;;;17.80;99.90;;;;;;6193369;23;20023;-85
2023/08/11 00:02:30;;;;;;;1.30;0.70;;;17.80;99.90;;;;;;6218948;23;20051;-85
2023/08/11 00:04:56;;;;;;;0.80;0.57;;;17.80;99.90;;;;;;6218751;23;20020;-85
2023/08/11 00:07:22;;;;;;;0.75;0.57;;;17.80;99.90;;;;;;6246097;23;20039;-85
2023/08/11 00:09:48;;;;;;;1.08;0.60;;;17.80;99.90;;;;;;6218478;23;20020;-85
2023/08/11 00:12:14;;;;;;;0.90;0.60;;;17.80;99.90;;;;;;6218508;23;20030;-85
2023/08/11 00:14:40;;;;;;;2.40;0.70;;;17.80;99.90;;;;;;6245990;23;20016;-87
2023/08/11 00:17:05;;;;;;;1.15;0.70;;;17.90;99.90;;;;;;6219037;23;20091;-85
2023/08/11 00:19:31;;;;;;;2.15;0.80;;;17.80;99.90;;;;;;6245755;23;20070;-87
2023/08/11 00:21:57;;;;;;;0.98;0.60;;;17.70;99.90;;;;;;6245787;23;20020;-85
2023/08/11 00:24:23;;;;;;;1.60;0.75;;;17.50;99.90;;;;;;6245793;23;20012;-86
2023/08/11 00:26:49;;;;;;;2.78;0.57;;;17.70;99.90;;;;;;6218894;23;20023;-85
2023/08/11 00:29:15;;;;;;;1.58;0.50;;;17.60;99.90;;;;;;6193925;23;20012;-86
2023/08/11 00:31:41;;;;;;;1.45;0.90;;;17.60;99.90;;;;;;6218610;23;20346;-85
2023/08/11 00:34:10;;;;;;;1.23;0.70;;;17.50;99.90;;;;;;6218452;23;20023;-85
2023/08/11 00:36:36;;;;;;;1.20;0.60;;;17.50;99.90;;;;;;6218525;23;20056;-85
2023/08/11 00:39:01;;;;;;;0.75;0.57;;;17.40;99.90;;;;;;6245495;23;20039;-85
2023/08/11 00:41:28;;;;;;;1.50;0.60;;;17.40;99.90;;;;;;6245286;22;20020;-86
2023/08/11 00:43:53;;;;;;;0.90;0.70;;;17.30;99.90;;;;;;6193629;23;20087;-85
2023/08/11 00:46:22;;;;;;;1.42;0.70;;;17.20;99.90;;;;;;6245716;23;20024;-86
2023/08/11 00:48:51;;;;;;;1.27;0.70;;;17.20;99.90;;;;;;6245350;23;20393;-84
2023/08/11 00:51:21;;;;;;;1.20;0.68;;;17.10;99.90;;;;;;6193794;23;20058;-87
2023/08/11 00:53:47;;;;;;;1.10;0.77;;;17.10;99.90;;;;;;6245547;23;20070;-86
2023/08/11 00:56:14;;;;;;;1.70;0.75;;;16.90;99.90;;;;;;6218021;23;20028;-86
2023/08/11 00:58:42;;;;;;;1.15;0.60;;;16.90;99.90;;;;;;6192933;23;20016;-86
2023/08/11 01:01:09;;;;;;;0.90;0.60;;;16.80;99.90;;;;;;6245380;23;20051;-86
2023/08/11 01:03:35;;;;;;;2.30;0.70;;;16.70;99.90;;;;;;6218110;23;20016;-86
2023/08/11 01:06:13;;;;;;;1.40;0.70;;;16.50;99.90;;;;;;6218429;23;20092;-85
2023/08/11 01:11:10;;;;;;;1.67;0.60;;;16.40;99.90;;;;;;6246533;22;20040;-93
2023/08/11 01:13:45;;;;;;;3.60;0.90;;;16.30;99.90;;;;;;6202039;23;20107;-91
2023/08/11 01:16:12;;;;;;;1.13;0.82;;;16.20;99.90;;;;;;6196468;23;20020;-90
2023/08/11 01:18:41;;;;;;;1.80;0.80;;;16.10;99.90;;;;;;6219827;23;20020;-89
2023/08/11 01:21:19;;;;;;;1.73;0.95;;;16.00;99.90;;;;;;6246193;23;20019;-93
2023/08/11 01:23:58;;;;;;;1.33;0.85;;;15.90;99.90;;;;;;6219732;23;20027;-92
2023/08/11 01:26:24;;;;;;;1.58;0.80;;;15.90;99.90;;;;;;6194703;23;20068;-92
2023/08/11 01:28:53;;;;;;;1.45;0.80;;;15.80;99.90;;;;;;6219631;23;20012;-90
2023/08/11 01:31:32;;;;;;;1.92;1.00;;;15.70;99.90;;;;;;6220281;23;20442;-91
2023/08/11 01:34:06;;;;;;;1.52;0.90;;;15.60;99.90;;;;;;6218082;23;20016;-91
2023/08/11 01:36:42;;;;;;;1.95;1.02;;;15.60;99.90;;;;;;6246166;23;20028;-89
2023/08/11 01:39:19;;;;;;;1.10;0.68;;;15.50;99.90;;;;;;6219117;23;20023;-91
2023/08/11 01:41:53;;;;;;;3.35;1.15;;;15.50;99.90;;;;;;6218912;23;20024;-91
2023/08/11 01:47:26;;;;;;;1.67;0.80;;;15.40;99.90;;;;;;6219212;23;20537;-90
2023/08/11 01:49:52;;;;;;;2.05;1.00;;;15.30;99.90;;;;;;6219761;23;20051;-92
2023/08/11 01:52:19;;;;;;;1.52;0.93;;;15.30;99.90;;;;;;6219544;23;20016;-89
2023/08/11 01:54:48;;;;;;;1.42;0.82;;;15.20;99.90;;;;;;6219033;23;20095;-90
2023/08/11 02:05:06;;;;;;;1.95;0.90;;;15.10;99.90;;;;;;6244916;23;20476;-85
2023/08/11 02:07:32;;;;;;;1.60;0.90;;;15.10;99.90;;;;;;6244665;23;20016;-87
2023/08/11 02:09:58;;;;;;;1.17;0.85;;;15.00;99.90;;;;;;6244717;23;20019;-87
2023/08/11 02:12:23;;;;;;;1.77;0.80;;;15.00;99.90;;;;;;6218079;23;20443;-85
2023/08/11 02:14:49;;;;;;;1.13;0.80;;;15.00;99.90;;;;;;6245266;23;20449;-85
2023/08/11 02:17:15;;;;;;;1.50;0.80;;;15.00;99.90;;;;;;6218401;23;20019;-84
2023/08/11 02:19:40;;;;;;;2.15;1.20;;;14.90;99.90;;;;;;6245235;23;20519;-86
2023/08/11 02:22:06;;;;;;;2.50;1.20;;;14.90;99.90;;;;;;6244790;23;20091;-85
2023/08/11 02:24:32;;;;;;;1.65;0.90;;;14.80;99.90;;;;;;6245948;23;20031;-85
2023/08/11 02:26:57;;;;;;;2.75;0.80;;;14.80;99.90;;;;;;6219416;23;20026;-86
2023/08/11 02:29:24;;;;;;;1.48;0.88;;;14.90;99.90;;;;;;6246524;23;20012;-85
2023/08/11 02:31:52;;;;;;;2.20;0.93;;;14.70;99.90;;;;;;6220173;23;20442;-86
2023/08/11 02:34:18;;;;;;;1.88;1.10;;;14.70;99.90;;;;;;6194911;23;20020;-88
2023/08/11 02:36:43;;;;;;;1.13;0.80;;;14.60;99.90;;;;;;6219836;23;20035;-87
2023/08/11 02:39:09;;;;;;;1.55;1.15;;;14.60;99.90;;;;;;6246783;23;20052;-87
2023/08/11 02:41:35;;;;;;;2.20;1.15;;;14.60;99.90;;;;;;6219492;23;20024;-86
2023/08/11 02:44:02;;;;;;;1.67;1.02;;;14.60;99.90;;;;;;6219148;23;20510;-87
2023/08/11 02:46:27;;;;;;;2.58;1.10;;;14.50;99.90;;;;;;6195109;23;20338;-86
2023/08/11 02:48:53;;;;;;;2.25;1.30;;;14.50;99.90;;;;;;6194478;23;20023;-87
2023/08/11 02:51:19;;;;;;;1.55;1.15;;;14.50;99.90;;;;;;6219711;23;20015;-87
2023/08/11 02:53:45;;;;;;;2.55;1.50;;;14.50;99.90;;;;;;6245680;23;20016;-87
2023/08/11 02:56:15;;;;;;;2.20;1.45;;;14.40;99.90;;;;;;6194383;23;20022;-86
2023/08/11 02:58:42;;;;;;;1.63;1.20;;;14.40;99.90;;;;;;6219427;23;20016;-88
2023/08/11 03:01:07;;;;;;;1.88;0.90;;;14.30;99.90;;;;;;6219487;23;20020;-88
2023/08/11 03:03:33;;;;;;;2.58;1.27;;;14.30;99.90;;;;;;6246418;23;20012;-87
2023/08/11 03:05:59;;;;;;;2.30;1.38;;;14.30;99.90;;;;;;6218995;23;20058;-86
2023/08/11 03:08:25;;;;;;;2.75;1.40;;;14.30;99.90;;;;;;6218667;23;20015;-86
2023/08/11 03:10:51;;;;;;;3.45;1.60;;;14.30;99.90;;;;;;6246063;23;20070;-87
2023/08/11 03:13:19;;;;;;;2.22;1.25;;;14.30;99.90;;;;;;6219423;23;20377;-88
2023/08/11 03:15:45;;;;;;;1.88;1.00;;;14.30;99.90;;;;;;6219578;23;20035;-87
2023/08/11 03:18:11;;;;;;;3.58;1.60;;;14.30;99.90;;;;;;6246175;23;20016;-87
2023/08/11 03:20:36;;;;;;;2.22;1.23;;;14.20;99.90;;;;;;6246645;23;20012;-86
2023/08/11 03:23:06;;;;;;;2.35;1.58;;;14.20;99.90;;;;;;6219787;23;20446;-87
2023/08/11 03:25:32;;;;;;;5.60;1.65;;;14.20;99.90;;;;;;6219049;23;20343;-88
2023/08/11 03:27:58;;;;;;;3.28;1.65;;;14.20;99.90;;;;;;6219124;23;20020;-85
2023/08/11 03:30:23;;;;;;;2.90;1.50;;;14.20;99.90;;;;;;6218979;23;20024;-87
2023/08/11 03:32:49;;;;;;;2.28;1.65;;;14.10;99.90;;;;;;6219203;23;20019;-85
2023/08/11 03:35:17;;;;;;;3.70;1.70;;;14.20;99.90;;;;;;6193875;23;20016;-84
2023/08/11 03:37:43;;;;;;;3.15;2.05;;;14.10;99.90;;;;;;6245793;23;20019;-88
2023/08/11 03:40:12;;;;;;;6.70;2.28;;;14.10;99.90;;;;;;6245429;23;20016;-85
2023/08/11 03:42:39;;;;;;;3.60;1.73;;;14.00;99.90;;;;;;6219130;23;20324;-85
2023/08/11 03:45:05;;;;;;;4.57;1.58;;;14.00;99.90;;;;;;6246202;23;20020;-83
2023/08/11 03:47:31;;;;;;;2.72;1.80;;;14.00;99.90;;;;;;6246160;23;20067;-84
2023/08/11 03:49:57;;;;;;;1.90;1.30;;;14.00;99.90;;;;;;6218832;23;20016;-85
2023/08/11 03:52:24;;;;;;;3.03;1.95;;;14.00;99.90;;;;;;6218784;23;20076;-85
2023/08/11 03:54:50;;;;;;;3.08;1.60;;;14.00;99.90;;;;;;6218944;23;20030;-84
2023/08/11 03:57:16;;;;;;;3.20;1.92;;;14.40;99.90;;;;;;6219339;23;20349;-83
2023/08/11 03:59:42;;;;;;;3.15;2.10;;;14.00;99.90;;;;;;6245778;23;20012;-84
2023/08/11 04:02:08;;;;;;;4.88;2.20;;;14.00;99.90;;;;;;6245658;23;20051;-84
2023/08/11 04:04:34;;;;;;;2.40;1.60;;;14.00;99.90;;;;;;6245662;23;20035;-85
2023/08/11 04:07:00;;;;;;;2.63;1.80;;;14.10;99.90;;;;;;6245571;23;20453;-84
2023/08/11 04:09:25;;;;;;;3.00;1.92;;;14.00;99.90;;;;;;6218356;23;20073;-85
2023/08/11 04:11:51;;;;;;;2.88;1.60;;;13.70;99.90;;;;;;6218833;23;20024;-85
2023/08/11 04:14:17;;;;;;;2.50;1.88;;;14.00;99.90;;;;;;6218974;23;20024;-85
2023/08/11 04:16:43;;;;;;;3.28;1.98;;;13.90;99.90;;;;;;6218429;23;20019;-85
2023/08/11 04:19:10;;;;;;;4.03;2.10;;;14.00;99.90;;;;;;6245748;23;20370;-86
2023/08/11 04:21:36;;;;;;;2.67;1.70;;;14.00;99.90;;;;;;6245917;23;20031;-86
2023/08/11 04:24:02;;;;;;;1.98;1.42;;;13.90;99.90;;;;;;6218852;23;20013;-84
2023/08/11 04:26:28;;;;;;;3.42;2.20;;;14.00;99.90;;;;;;6218576;23;20333;-85
2023/08/11 04:28:53;;;;;;;3.53;1.90;;;13.90;99.90;;;;;;6245361;23;20009;-86
2023/08/11 04:31:19;;;;;;;3.17;1.67;;;13.90;99.90;;;;;;6218596;23;20051;-84
2023/08/11 04:33:45;;;;;;;2.67;1.92;;;14.40;99.90;;;;;;6218961;23;20016;-84
2023/08/11 04:36:10;;;;;;;4.43;2.70;;;14.00;99.90;;;;;;6218763;23;20414;-83
2023/08/11 04:38:36;;;;;;;2.42;1.90;;;13.90;99.90;;;;;;6193539;22;20012;-84
2023/08/11 04:41:02;;;;;;;3.70;2.25;;;14.00;99.90;;;;;;6218523;23;20442;-85
2023/08/11 04:43:29;;;;;;;3.40;2.22;;;13.90;99.90;;;;;;6218686;23;20022;-86
2023/08/11 04:45:54;;;;;;;3.00;2.03;;;13.90;99.90;;;;;;6245624;23;20020;-85
2023/08/11 04:48:21;;;;;;;2.67;1.95;;;14.00;99.90;;;;;;6218179;23;20500;-84
2023/08/11 04:50:51;;;;;;;4.13;1.92;;;14.10;99.90;;;;;;6245314;23;20027;-85
2023/08/11 04:53:17;;;;;;;2.83;1.48;;;14.00;99.90;;;;;;6245686;23;20130;-86
2023/08/11 04:55:43;;;;;;;1.90;1.20;;;14.10;99.90;;;;;;6245263;23;20454;-84
2023/08/11 04:58:09;;;;;;;3.03;1.48;;;14.10;99.90;;;;;;6218602;23;20438;-85
2023/08/11 05:00:36;;;;;;;3.60;1.60;;;14.10;99.90;;;;;;6245158;23;20020;-86
2023/08/11 05:03:02;;;;;;;2.67;1.27;;;14.20;99.90;;;;;;6245720;23;20311;-85
2023/08/11 05:05:28;;;;;;;3.17;1.48;;;14.20;99.90;;;;;;6218560;23;20464;-84
2023/08/11 05:07:54;;;;;;;1.90;1.33;;;14.20;99.90;;;;;;6245267;23;20087;-84
2023/08/11 05:10:19;;;;;;;2.88;1.27;;;14.30;99.90;;;;;;6218127;23;20027;-84
2023/08/11 05:12:45;;;;;;;2.53;1.40;;;14.30;99.90;;;;;;6245365;23;20024;-84
2023/08/11 05:15:11;;;;;;;3.15;1.30;;;14.40;99.90;;;;;;6218800;23;20034;-84
2023/08/11 05:17:37;;;;;;;2.05;1.20;;;14.40;99.90;;;;;;6218612;23;20438;-83
2023/08/11 05:20:07;;;;;;;1.67;0.90;;;14.50;99.90;;;;;;6245039;23;20016;-84
2023/08/11 05:22:34;;;;;;;1.75;0.90;;;14.50;99.90;;;;;;6193194;23;20090;-85
2023/08/11 05:25:03;;;;;;;2.15;1.00;;;14.60;99.90;;;;;;6218411;23;20097;-84
2023/08/11 05:27:28;;;;;;;2.38;0.80;;;14.70;99.90;;;;;;6244831;23;20012;-84
2023/08/11 05:29:54;;;;;;;1.55;1.00;;;14.80;99.90;;;;;;6218299;23;20100;-84
2023/08/11 05:32:20;;;;;;;1.50;0.93;;;14.90;99.90;;;;;;6218161;23;20055;-84
2023/08/11 05:34:45;;;;;;;2.20;0.90;;;14.90;99.90;;;;;;6217640;23;20024;-84
2023/08/11 05:37:12;;;;;;;1.10;0.70;;;15.00;99.90;;;;;;6218251;23;20095;-84
2023/08/11 05:39:41;;;;;;;1.23;0.70;;;15.10;99.90;;;;;;6218418;23;20103;-83
2023/08/11 05:42:07;;;;;;;1.02;0.80;;;15.20;99.90;;;;;;6218404;23;20020;-85
2023/08/11 05:44:33;;;;;;;1.05;0.70;;;15.40;99.90;;;;;;6218095;23;20023;-84
2023/08/11 05:46:59;;;;;;;1.35;0.80;;;15.50;99.90;;;;;;6218314;23;20020;-84
2023/08/11 05:49:25;;;;;;;1.10;0.50;;;15.60;99.90;;;;;;6218156;23;20339;-85
2023/08/11 05:51:50;;;;;;;1.38;0.93;;;15.80;99.90;;;;;;6218257;23;20016;-85
2023/08/11 05:54:16;;;;;;;1.33;0.70;;;15.90;99.90;;;;;;6218326;23;20016;-84
2023/08/11 05:56:42;;;;;;;1.30;0.70;;;16.00;99.90;;;;;;6245231;23;20016;-83
2023/08/11 05:59:08;;;;;;;1.77;1.00;;;16.10;99.90;;;;;;6246209;23;20020;-85
2023/08/11 06:01:34;;;;;;;1.10;0.70;;;16.30;99.90;;;;;;6246891;23;20027;-86
2023/08/11 06:04:00;;;;;;;1.13;0.77;;;16.40;99.90;;;;;;6219978;23;20441;-84
2023/08/11 06:06:26;;;;;;;14.73;13.88;;;16.50;99.90;;;;;;6218516;23;20020;-87
2023/08/11 06:08:54;;;;;;;1.27;0.80;;;16.60;99.90;;;;;;6219669;23;20019;-86
2023/08/11 06:11:20;;;;;;;1.80;0.88;;;16.70;99.90;;;;;;6194567;23;20072;-85
2023/08/11 06:13:46;;;;;;;1.75;0.77;;;16.90;99.90;;;;;;6247146;23;20028;-87
2023/08/11 06:16:12;;;;;;;1.33;0.90;;;17.00;99.90;;;;;;6246952;23;20023;-86
2023/08/11 06:18:38;;;;;;;1.17;0.75;;;17.10;99.90;;;;;;6219883;23;20338;-86
2023/08/11 06:21:04;;;;;;;1.08;0.80;;;17.30;99.90;;;;;;6219872;23;20083;-86
2023/08/11 06:23:31;;;;;;;2.53;0.88;;;17.40;99.90;;;;;;6219684;23;20020;-86
2023/08/11 06:25:57;;;;;;;2.70;0.80;;;17.50;99.90;;;;;;6246432;23;20461;-86
2023/08/11 06:28:22;;;;;;;0.90;0.52;;;17.70;99.90;;;;;;6220215;23;20008;-86
2023/08/11 06:30:49;;;;;;;1.35;0.90;;;17.80;99.90;;;;;;6220460;23;20096;-84
2023/08/11 06:33:14;;;;;;;1.77;0.80;;;17.90;99.90;;;;;;6220158;23;20046;-85
2023/08/11 06:35:42;;;;;;;1.35;0.70;;;18.10;99.90;;;;;;6219923;23;20442;-87
2023/08/11 06:38:09;;;;;;;3.08;1.23;;;18.20;99.90;;;;;;6219636;23;20384;-87
2023/08/11 06:40:38;;;;;;;1.30;0.70;;;18.30;99.90;;;;;;6246099;23;20023;-84
2023/08/11 06:43:04;;;;;;;8.90;8.18;;;18.50;99.90;;;;;;6246458;23;20016;-84
2023/08/11 06:45:30;;;;;;;1.20;0.68;;;18.60;99.90;;;;;;6219519;23;20397;-85
2023/08/11 06:47:56;;;;;;;1.08;0.70;;;18.70;99.90;;;;;;6219156;23;20020;-83
2023/08/11 06:50:21;;;;;;;1.92;0.65;;;18.90;99.90;;;;;;6246854;23;20016;-86
2023/08/11 06:52:47;;;;;;;1.00;0.70;;;19.00;99.90;;;;;;6219940;23;20091;-84
2023/08/11 06:55:13;;;;;;;0.75;0.63;;;19.10;99.90;;;;;;6219549;23;20020;-83
2023/08/11 06:57:39;;;;;;;2.50;0.60;;;19.30;99.90;;;;;;6220148;23;20016;-85
2023/08/11 07:00:07;;;;;;;1.17;0.70;;;19.40;99.90;;;;;;6246683;23;20023;-84
2023/08/11 07:02:43;;;;;;;1.10;0.60;;;19.50;99.90;;;;;;6246713;23;20008;-89
2023/08/11 07:05:09;;;;;;;1.60;0.82;;;19.70;99.90;;;;;;6247140;23;20099;-87
2023/08/11 07:07:34;;;;;;;0.98;0.70;;;19.90;99.90;;;;;;6246787;23;20047;-86
2023/08/11 07:10:00;;;;;;;2.15;0.70;;;20.00;99.90;;;;;;6219668;23;20087;-84
2023/08/11 07:12:26;;;;;;;1.35;0.90;;;20.10;99.90;;;;;;6246026;23;20083;-84
2023/08/11 07:14:52;;;;;;;1.58;0.80;;;20.30;99.90;;;;;;6246046;23;20062;-83
2023/08/11 07:17:18;;;;;;;1.58;0.80;;;20.40;99.90;;;;;;6246333;23;20019;-84
2023/08/11 07:19:44;;;;;;;2.47;0.95;;;20.50;99.90;;;;;;6219343;23;20016;-84
2023/08/11 07:22:09;;;;;;;1.00;0.77;;;20.70;99.90;;;;;;6246784;23;20012;-84
2023/08/11 07:24:35;;;;;;;1.25;0.68;;;20.80;99.90;;;;;;6219535;23;20082;-84
2023/08/11 07:27:01;;;;;;;2.15;1.00;;;21.00;99.90;;;;;;6219937;23;20056;-83
2023/08/11 07:29:27;;;;;;;3.35;1.25;;;21.10;99.90;;;;;;6219368;23;20055;-88
2023/08/11 07:31:53;;;;;;;3.85;1.00;;;21.30;99.90;;;;;;6247327;23;20013;-86
2023/08/11 07:34:19;;;;;;;1.65;0.80;;;21.40;99.90;;;;;;6245823;23;20020;-85
2023/08/11 07:36:45;;;;;;;1.52;0.88;;;21.50;99.90;;;;;;6219365;23;20521;-84
2023/08/11 07:39:12;;;;;;;1.70;0.70;;;21.70;99.90;;;;;;6219196;23;20016;-84
2023/08/11 07:41:37;;;;;;;3.45;1.23;;;21.80;99.90;;;;;;6219109;23;20055;-85
2023/08/11 07:44:04;;;;;;;2.42;1.10;;;21.90;99.90;;;;;;6245637;23;20020;-86
2023/08/11 07:46:30;;;;;;;2.22;0.90;;;22.10;99.90;;;;;;6246445;23;20005;-85
2023/08/11 07:48:56;;;;;;;2.42;1.05;;;22.30;99.90;;;;;;6219260;23;20016;-86
2023/08/11 07:51:22;;;;;;;1.85;1.23;;;22.40;99.90;;;;;;6246419;23;20549;-86
2023/08/11 07:53:48;;;;;;;1.73;0.90;;;22.50;99.90;;;;;;6218771;23;20338;-86
2023/08/11 07:56:14;;;;;;;3.17;1.00;;;22.60;99.90;;;;;;6218969;23;20020;-85
2023/08/11 07:58:40;;;;;;;1.73;1.25;;;22.70;99.90;;;;;;6246551;23;20081;-86
2023/08/11 08:01:08;;;;;;;1.77;1.08;;;22.80;99.90;;;;;;6246427;23;20094;-85
2023/08/11 08:03:35;;;;;;;1.48;0.93;;;23.00;99.90;;;;;;6219565;23;20087;-85
2023/08/11 08:06:02;;;;;;;2.30;0.80;;;23.10;99.90;;;;;;6246535;23;20023;-86
2023/08/11 08:08:28;;;;;;;1.95;0.90;;;23.20;99.90;;;;;;6246289;22;20307;-85
2023/08/11 08:10:54;;;;;;;2.50;0.73;;;23.20;99.90;;;;;;6246499;23;20106;-85
2023/08/11 08:13:20;;;;;;;1.38;0.80;;;23.50;99.90;;;;;;6246874;23;20446;-85
2023/08/11 08:15:45;;;;;;;3.28;1.20;;;23.60;99.90;;;;;;6195817;23;20031;-84
2023/08/11 08:18:11;;;;;;;3.17;0.90;;;23.60;99.90;;;;;;6221142;23;20043;-85
2023/08/11 08:20:37;;;;;;;4.13;1.15;;;23.80;99.90;;;;;;6195033;23;20020;-85
2023/08/11 08:23:03;;;;;;;5.18;0.95;;;23.90;99.90;;;;;;6221298;23;20016;-86
2023/08/11 08:25:28;;;;;;;2.33;1.08;;;24.00;99.90;;;;;;6220889;23;20020;-85
2023/08/11 08:27:54;;;;;;;2.22;1.20;;;24.10;99.90;;;;;;6248131;23;20017;-85
2023/08/11 08:30:21;;;;;;;3.22;1.00;;;24.30;99.90;;;;;;6221576;23;20013;-85
2023/08/11 08:32:46;;;;;;;2.42;0.80;;;24.40;99.90;;;;;;6248205;23;20303;-85
2023/08/11 08:35:12;;;;;;;2.45;0.80;;;24.50;99.90;;;;;;6221127;23;20056;-85
2023/08/11 08:37:38;;;;;;;1.85;0.98;;;24.60;99.90;;;;;;6248009;23;20346;-85
2023/08/11 08:40:07;;;;;;;1.85;0.90;;;24.70;99.90;;;;;;6219343;23;20019;-85
2023/08/11 08:42:34;;;;;;;1.88;0.90;;;24.80;99.90;;;;;;6218777;23;20016;-85
2023/08/11 08:45:00;;;;;;;1.27;0.90;;;24.80;99.90;;;;;;6193384;23;20381;-85
2023/08/11 08:47:26;;;;;;;2.53;1.00;;;24.90;99.90;;;;;;6218668;23;20035;-86
2023/08/11 08:49:53;;;;;;;2.35;1.05;;;25.10;99.90;;;;;;6218347;23;20023;-86
2023/08/11 08:52:20;;;;;;;1.42;1.05;;;25.20;99.90;;;;;;6245801;23;20023;-85
2023/08/11 08:54:46;;;;;;;3.10;0.90;;;25.30;99.90;;;;;;6245609;23;20060;-85
2023/08/11 08:57:12;;;;;;;3.60;0.80;;;25.40;99.90;;;;;;6245440;23;20020;-85
2023/08/11 08:59:38;;;;;;;1.95;0.90;;;25.50;99.90;;;;;;6218385;23;20016;-85
2023/08/11 09:02:06;;;;;;;2.35;0.90;;;25.70;99.90;;;;;;6218376;23;20019;-85
2023/08/11 09:04:32;;;;;;;2.35;1.08;;;25.80;99.90;;;;;;6219078;23;20055;-85
2023/08/11 09:06:59;;;;;;;2.53;0.82;;;26.00;99.90;;;;;;6219265;23;20027;-85
2023/08/11 09:09:27;;;;;;;2.00;1.00;;;26.00;99.90;;;;;;6245275;23;20089;-86
2023/08/11 09:11:53;;;;;;;3.47;1.10;;;26.20;99.90;;;;;;6218251;23;20047;-85
2023/08/11 09:14:21;;;;;;;2.50;1.00;;;26.20;99.90;;;;;;6245138;23;20023;-85
2023/08/11 09:16:51;;;;;;;2.55;1.02;;;26.30;99.90;;;;;;6218905;23;20048;-85
2023/08/11 09:19:17;;;;;;;3.22;1.23;;;26.40;99.90;;;;;;6193061;23;20047;-86
2023/08/11 09:21:43;;;;;;;1.63;0.90;;;26.60;99.90;;;;;;6245240;23;20016;-86
2023/08/11 09:24:13;;;;;;;3.17;0.98;;;26.60;99.90;;;;;;6197084;23;20071;-86
2023/08/11 09:26:44;;;;;;;2.25;0.90;;;26.80;99.90;;;;;;6221084;23;20016;-86
2023/08/11 09:29:11;;;;;;;1.70;0.90;;;26.90;99.90;;;;;;6195343;23;20067;-86
2023/08/11 09:31:38;;;;;;;2.03;1.05;;;26.90;99.90;;;;;;6220290;23;20027;-86
2023/08/11 09:34:14;;;;;;;1.92;0.93;;;27.00;99.90;;;;;;6248963;23;20013;-85
2023/08/11 09:36:42;;;;;;;2.72;1.13;;;27.10;99.90;;;;;;6249586;23;20480;-86
2023/08/11 09:39:08;;;;;;;1.75;0.70;;;27.20;99.90;;;;;;6221730;23;20091;-86
2023/08/11 09:41:43;;;;;;;2.40;0.90;;;27.30;99.90;;;;;;6221071;23;20537;-86
2023/08/11 09:44:15;;;;;;;3.58;0.93;;;27.40;99.90;;;;;;6249842;23;20446;-86
2023/08/11 09:46:42;;;;;;;3.55;0.90;;;27.30;99.90;;;;;;6206881;23;20015;-86
2023/08/11 09:49:08;;;;;;;2.63;0.90;;;27.50;99.90;;;;;;6234545;23;20095;-86
2023/08/11 09:51:36;;;;;;;4.78;1.10;;;27.50;99.90;;;;;;6201058;23;20016;-85
2023/08/11 09:54:07;;;;;;;2.28;0.77;;;27.60;99.90;;;;;;6221284;23;20047;-85
2023/08/11 09:56:43;;;;;;;2.17;0.80;;;27.70;99.90;;;;;;6222446;23;20073;-85
2023/08/11 09:59:19;;;;;;;1.25;0.80;;;27.80;99.90;;;;;;6222151;23;20020;-86
2023/08/11 10:01:47;;;;;;;1.92;0.70;;;28.00;99.90;;;;;;6222621;23;20031;-85
2023/08/11 10:04:31;;;;;;;1.83;0.70;;;28.10;99.90;;;;;;6249488;23;20015;-85
2023/08/11 10:06:59;;;;;;;1.08;0.60;;;28.20;99.90;;;;;;6221095;23;20020;-85
2023/08/11 10:09:27;;;;;;;2.55;1.10;;;28.20;99.90;;;;;;6247405;23;20023;-86
2023/08/11 10:11:57;;;;;;;1.92;0.80;;;28.30;99.90;;;;;;6194813;23;20020;-85
2023/08/11 10:14:25;;;;;;;1.50;0.73;;;28.40;99.90;;;;;;6219964;23;20024;-86
2023/08/11 10:16:52;;;;;;;4.82;0.90;;;28.40;99.90;;;;;;6246794;23;20024;-85
2023/08/11 10:19:18;;;;;;;4.28;0.90;;;28.50;99.90;;;;;;6222366;23;20013;-86
2023/08/11 10:21:44;;;;;;;1.58;1.00;;;28.60;99.90;;;;;;6249856;23;20398;-86
2023/08/11 10:24:10;;;;;;;2.10;0.60;;;28.60;99.70;;;;;;6220966;23;20020;-85
2023/08/11 10:26:36;;;;;;;1.75;0.63;;;28.50;99.90;;;;;;6195616;23;20054;-88
2023/08/11 10:29:03;;;;;;;1.63;0.63;;;28.70;99.90;;;;;;6219763;23;20043;-89
2023/08/11 10:31:33;;;;;;;1.77;0.70;;;28.80;99.90;;;;;;6220066;23;20027;-89
2023/08/11 10:34:06;;;;;;;3.10;0.50;;;29.00;99.90;;;;;;6247863;23;20062;-91
2023/08/11 10:36:35;;;;;;;1.42;0.70;;;29.00;99.90;;;;;;6195321;23;20103;-90
2023/08/11 10:39:04;;;;;;;1.15;0.52;;;29.10;99.90;;;;;;6196216;23;20020;-90
2023/08/11 10:41:31;;;;;;;1.70;0.60;;;29.20;99.40;;;;;;6245660;23;20059;-87
2023/08/11 10:44:00;;;;;;;2.38;0.70;;;29.00;99.50;;;;;;6247130;23;20016;-91
2023/08/11 10:46:31;;;;;;;1.70;0.70;;;29.10;99.90;;;;;;6220346;23;20074;-89
2023/08/11 10:49:20;;;;;;;1.63;0.70;;;29.10;99.90;;;;;;6220246;23;20016;-88
2023/08/11 10:51:46;;;;;;;2.83;0.73;;;29.10;99.90;;;;;;6247048;23;20024;-89
2023/08/11 10:54:25;;;;;;;0.85;0.60;;;29.00;99.40;;;;;;6221457;23;20023;-90
2023/08/11 10:56:56;;;;;;;1.50;0.90;;;29.20;99.50;;;;;;6197375;23;20044;-89
2023/08/11 10:59:31;;;;;;;2.70;0.50;;;29.30;99.60;;;;;;6222630;23;20016;-90
2023/08/11 11:01:59;;;;;;;1.10;0.50;;;29.30;99.20;;;;;;6221233;23;20020;-87
2023/08/11 11:04:32;;;;;;;2.00;0.70;;;29.20;99.00;;;;;;6220709;23;20409;-90
2023/08/11 11:07:02;;;;;;;1.55;0.50;;;29.50;99.50;;;;;;6196339;23;20016;-89
2023/08/11 11:09:28;;;;;;;2.97;0.60;;;29.60;99.20;;;;;;6196885;23;20032;-90
2023/08/11 11:11:54;;;;;;;2.60;2.03;;;29.70;99.90;;;;;;6222085;23;20016;-90
2023/08/11 11:14:21;;;;;;;1.95;1.10;;;29.90;99.50;;;;;;6221887;23;20099;-89
2023/08/11 11:16:49;;;;;;;2.20;1.27;;;29.90;98.30;;;;;;6227352;23;20335;-87
2023/08/11 11:19:17;;;;;;;1.60;0.98;;;29.90;99.30;;;;;;6205620;23;20020;-89
2023/08/11 11:21:56;;;;;;;;;;;;;;;;;;;;;
2023/08/11 11:24:25;;;;;;;1.63;0.90;;;29.90;98.90;;;;;;6227547;23;20016;-90
2023/08/11 11:26:51;;;;;;;6.40;5.40;;;30.30;98.20;;;;;;6202582;23;20023;-89
2023/08/11 11:32:43;;;;;;;2.50;1.63;;;30.30;97.20;;;;;;6106374;23;20069;-91
2023/08/11 11:35:35;;;;;;;;;;;;;;;;;;;;;
2023/08/11 11:38:10;;;;;;;2.80;0.68;;;30.30;97.30;;;;;;6108908;23;20018;-93
2023/08/11 11:40:36;;;;;;;3.15;0.90;;;30.40;96.50;;;;;;6059415;23;20022;-87
2023/08/11 11:43:05;;;;;;;2.60;0.73;;;30.40;96.40;;;;;;6104395;23;20555;-88
2023/08/11 11:45:46;;;;;;;;;;;;;;;;;;;;;
2023/08/11 11:48:50;;;;;;;1.40;1.10;;;30.30;96.40;;;;;;6105242;23;20024;-90
2023/08/11 11:51:47;;;;;;;1.83;1.20;;;30.30;96.30;;;;;;5994826;24;20035;-89
2023/08/11 11:58:15;;;;;;;4.57;3.22;;;30.40;96.80;;;;;;5963572;23;20028;-89
2023/08/11 12:00:45;;;;;;;11.57;10.82;;;30.50;95.50;;;;;;5962759;24;20056;-88
2023/08/11 12:03:19;;;;;;;5.60;5.20;;;30.60;97.10;;;;;;5962331;24;20020;-90
2023/08/11 12:05:48;;;;;;;6.50;5.88;;;30.80;95.50;;;;;;6055921;23;20021;-92
2023/08/11 12:08:23;;;;;;;1.67;0.93;;;30.80;97.00;;;;;;6182864;23;20020;-89
2023/08/11 12:10:49;;;;;;;31.88;5.78;;;30.90;96.70;;;;;;6208059;23;20028;-93
2023/08/11 12:13:17;;;;;;;15.07;2.85;;;31.00;97.80;;;;;;6209647;23;20017;-92
2023/08/11 12:19:24;;;;;;;7.35;4.05;;;31.10;96.20;;;;;;6236692;23;20016;-92
2023/08/11 12:22:00;;;;;;;6.93;4.78;;;31.20;95.00;;;;;;6208672;23;20028;-93
2023/08/11 12:24:34;;;;;;;3.67;1.70;;;31.00;95.70;;;;;;6229074;23;20075;-93
2023/08/11 12:27:18;;;;;;;2.72;1.45;;;30.90;95.60;;;;;;6200552;23;20347;-93
2023/08/11 12:29:48;;;;;;;6.38;5.63;;;31.00;95.90;;;;;;6197204;23;20117;-91
2023/08/11 12:32:17;;;;;;;1.98;0.60;;;31.20;96.80;;;;;;6171898;23;20027;-91
2023/08/11 12:35:15;;;;;;;3.05;2.55;;;31.50;96.30;;;;;;6168168;23;20020;-92
2023/08/11 12:37:55;;;;;;;3.65;3.40;;;31.60;95.30;;;;;;6169256;23;20355;-89
2023/08/11 12:40:24;;;;;;;2.03;1.63;;;31.70;95.60;;;;;;6189715;23;20379;-89
2023/08/11 12:43:24;;;;;;;;;;;;;;;;;;;;;
2023/08/11 12:49:50;;;;;;;4.32;4.10;;;31.70;94.50;;;;;;6221642;23;20011;-87
2023/08/11 12:52:19;;;;;;;4.18;3.88;;;32.00;95.30;;;;;;6165746;23;20074;-93
2023/08/11 12:54:48;;;;;;;1.35;0.70;;;32.10;94.40;;;;;;6190905;23;20095;-92
2023/08/11 12:57:19;;;;;;;3.75;3.45;;;31.70;93.80;;;;;;6192597;23;20446;-90
2023/08/11 12:59:45;;;;;;;5.25;4.93;;;31.50;93.80;;;;;;6222435;23;20088;-87
2023/08/11 13:02:10;;;;;;;3.63;0.77;;;31.10;94.20;;;;;;6222620;23;20020;-89
2023/08/11 13:04:36;;;;;;;2.40;1.83;;;31.00;94.20;;;;;;6193754;23;20021;-90
2023/08/11 13:07:02;;;;;;;3.83;1.50;;;30.80;94.60;;;;;;6165697;23;20092;-87
2023/08/11 13:09:28;;;;;;;1.65;0.75;;;31.00;95.00;;;;;;6165297;23;20033;-94
2023/08/11 13:11:54;;;;;;;2.15;0.70;;;30.80;94.60;;;;;;6165250;23;20020;-91
2023/08/11 13:14:20;;;;;;;5.82;5.30;;;30.60;94.60;;;;;;6189581;23;20048;-89
2023/08/11 13:16:49;;;;;;;1.23;0.70;;;30.70;95.10;;;;;;6189317;23;20063;-92
2023/08/11 13:19:14;;;;;;;1.48;0.70;;;30.50;95.60;;;;;;6189695;23;20017;-89
2023/08/11 13:21:40;;;;;;;3.42;0.90;;;30.50;96.20;;;;;;6189884;23;20020;-91